Time;durP1;ratioP1;P1;durP2;ratioP2;P2;SDS_P1;SDS_P2;PMS_P1;PMS_P2;Temp;Humidity;BMP_temperature;BMP_pressure;BME280_temperature;BME280_humidity;BME280_pressure;Samples;Min_cycle;Max_cycle;Signal;HPM_P1;HPM_P2
2023/04/23 00:00:23;;;;;;;46.17;35.10;;;;;;;11.39;71.96;100671.38;5074669;28;20040;-60
2023/04/23 00:02:52;;;;;;;44.92;35.50;;;;;;;11.34;71.82;100674.94;5077769;28;20396;-60
2023/04/23 00:05:18;;;;;;;47.75;34.30;;;;;;;11.37;71.70;100674.44;5076681;28;20029;-60
2023/04/23 00:07:44;;;;;;;43.00;34.28;;;;;;;11.37;71.95;100662.47;5094090;28;20043;-60
2023/04/23 00:10:10;;;;;;;44.85;34.03;;;;;;;11.34;71.68;100655.50;5078384;28;20066;-61
2023/04/23 00:12:36;;;;;;;43.55;33.90;;;;;;;11.38;71.80;100664.16;5084168;28;20488;-61
2023/04/23 00:15:03;;;;;;;43.55;32.75;;;;;;;11.38;71.77;100658.59;5080324;28;20045;-60
2023/04/23 00:17:28;;;;;;;41.80;32.08;;;;;;;11.34;71.68;100658.28;5082131;28;20052;-61
2023/04/23 00:19:53;;;;;;;44.75;33.45;;;;;;;11.34;71.76;100657.44;5081801;28;20039;-61
2023/04/23 00:22:19;;;;;;;40.28;31.40;;;;;;;11.37;71.80;100649.41;5077099;28;20036;-61
2023/04/23 00:24:45;;;;;;;41.38;32.38;;;;;;;11.34;71.86;100652.72;5076598;28;20028;-61
2023/04/23 00:27:11;;;;;;;40.83;32.30;;;;;;;11.31;71.60;100654.06;5085182;28;20073;-61
2023/04/23 00:29:36;;;;;;;38.72;31.08;;;;;;;11.27;71.28;100652.09;5075054;28;20028;-61
2023/04/23 00:32:02;;;;;;;40.13;31.83;;;;;;;11.25;71.39;100655.13;5076020;28;20017;-61
2023/04/23 00:34:27;;;;;;;39.90;31.20;;;;;;;11.21;71.41;100658.72;5081895;28;20024;-61
2023/04/23 00:36:53;;;;;;;39.80;30.83;;;;;;;11.20;71.83;100654.22;5093618;28;20024;-61
2023/04/23 00:39:18;;;;;;;37.90;30.90;;;;;;;11.24;71.71;100647.06;5086076;28;20152;-60
2023/04/23 00:41:44;;;;;;;35.63;28.85;;;;;;;11.26;71.75;100650.41;5077737;28;20028;-61
2023/04/23 00:44:09;;;;;;;36.45;29.52;;;;;;;11.19;71.85;100638.66;5073893;28;20058;-60
2023/04/23 00:46:35;;;;;;;38.40;28.98;;;;;;;11.12;71.75;100643.59;5077078;28;20480;-60
2023/04/23 00:49:01;;;;;;;36.03;28.65;;;;;;;11.11;71.54;100631.66;5075179;28;20387;-60
2023/04/23 00:51:27;;;;;;;33.50;28.15;;;;;;;11.13;71.94;100640.56;5076310;28;20058;-61
2023/04/23 00:53:53;;;;;;;37.60;29.35;;;;;;;11.08;72.05;100632.16;5079049;28;20024;-61
2023/04/23 00:56:19;;;;;;;36.17;29.23;;;;;;;11.08;72.34;100623.81;5075619;28;20352;-61
2023/04/23 00:58:44;;;;;;;34.10;28.05;;;;;;;11.10;72.11;100629.13;5078257;28;20042;-61
2023/04/23 01:01:11;;;;;;;34.60;27.90;;;;;;;11.10;72.30;100624.41;5071806;28;20024;-61
2023/04/23 01:03:38;;;;;;;31.35;26.80;;;;;;;11.11;72.52;100625.25;5075617;28;20115;-61
2023/04/23 01:06:04;;;;;;;34.92;27.67;;;;;;;11.11;72.44;100609.41;5077528;28;20028;-62
2023/04/23 01:08:31;;;;;;;34.28;28.15;;;;;;;11.13;72.99;100618.34;5073909;28;20119;-61
2023/04/23 01:10:57;;;;;;;35.17;27.20;;;;;;;11.10;72.62;100612.47;5077238;28;20123;-61
2023/04/23 01:13:25;;;;;;;32.70;26.48;;;;;;;11.10;72.78;100596.66;5077184;28;20043;-62
2023/04/23 01:15:50;;;;;;;33.92;27.67;;;;;;;11.11;72.73;100600.25;5075530;28;20102;-62
2023/04/23 01:18:18;;;;;;;34.85;28.20;;;;;;;11.13;72.87;100600.84;5074675;28;20024;-62
2023/04/23 01:20:44;;;;;;;32.35;26.83;;;;;;;11.13;72.71;100603.63;5070044;28;20380;-61
2023/04/23 01:23:09;;;;;;;33.08;26.58;;;;;;;11.16;72.59;100594.75;5077022;28;20032;-61
2023/04/23 01:25:35;;;;;;;32.47;27.50;;;;;;;11.10;72.63;100596.66;5079501;28;20028;-61
2023/04/23 01:28:00;;;;;;;33.90;26.80;;;;;;;11.10;72.96;100596.66;5070615;28;20094;-62
2023/04/23 01:30:27;;;;;;;31.60;26.60;;;;;;;11.13;73.11;100598.06;5070171;28;20035;-61
2023/04/23 01:32:56;;;;;;;33.33;26.30;;;;;;;11.17;72.88;100594.50;5073542;28;20029;-61
2023/04/23 01:35:22;;;;;;;31.88;26.00;;;;;;;11.17;72.84;100590.88;5075013;28;20043;-62
2023/04/23 01:37:48;;;;;;;31.85;26.50;;;;;;;11.12;72.75;100600.00;5084332;28;20077;-61
2023/04/23 01:40:14;;;;;;;31.23;25.05;;;;;;;11.11;72.85;100594.69;5076547;28;20040;-61
2023/04/23 01:42:40;;;;;;;31.35;25.90;;;;;;;11.10;73.21;100593.88;5072948;28;20035;-62
2023/04/23 01:45:06;;;;;;;32.78;25.55;;;;;;;11.09;73.15;100594.16;5073414;28;20024;-61
2023/04/23 01:47:33;;;;;;;30.85;26.15;;;;;;;11.06;73.29;100588.00;5072789;28;20032;-60
2023/04/23 01:49:58;;;;;;;30.80;26.17;;;;;;;11.10;73.32;100595.81;5073699;28;20029;-61
2023/04/23 01:52:24;;;;;;;31.70;25.80;;;;;;;11.17;73.12;100590.88;5076745;28;20075;-60
2023/04/23 01:54:49;;;;;;;29.85;24.80;;;;;;;11.16;72.67;100594.75;5079373;28;20061;-60
2023/04/23 01:57:14;;;;;;;30.17;25.63;;;;;;;11.18;73.03;100595.31;5074123;28;20113;-61
2023/04/23 01:59:41;;;;;;;28.40;24.75;;;;;;;11.20;72.87;100595.88;5071381;28;20147;-61
2023/04/23 02:02:09;;;;;;;27.92;23.60;;;;;;;11.20;72.43;100601.44;5075410;28;20078;-62
2023/04/23 02:04:37;;;;;;;28.60;23.83;;;;;;;11.11;72.95;100592.75;5075541;28;20486;-61
2023/04/23 02:07:02;;;;;;;28.67;24.25;;;;;;;11.12;72.53;100591.69;5085574;28;20051;-60
2023/04/23 02:09:27;;;;;;;27.25;23.13;;;;;;;11.11;72.53;100591.91;5075315;28;20513;-61
2023/04/23 02:11:56;;;;;;;27.35;23.55;;;;;;;11.09;72.66;100591.38;5078661;28;20038;-61
2023/04/23 02:14:22;;;;;;;28.00;23.92;;;;;;;11.09;72.55;100588.59;5070074;28;20037;-61
2023/04/23 02:16:47;;;;;;;26.83;23.92;;;;;;;11.06;72.59;100585.22;5054883;28;20938;-61
2023/04/23 02:19:14;;;;;;;26.15;22.50;;;;;;;10.98;72.50;100580.16;5060083;28;20029;-61
2023/04/23 02:21:39;;;;;;;26.38;23.00;;;;;;;10.99;72.50;100578.19;5069079;28;20040;-61
2023/04/23 02:24:05;;;;;;;25.80;22.90;;;;;;;11.02;72.56;100575.75;5052012;28;20035;-61
2023/04/23 02:26:31;;;;;;;28.05;23.63;;;;;;;10.91;72.80;100582.28;5051792;28;20385;-61
2023/04/23 02:28:56;;;;;;;26.35;23.52;;;;;;;10.93;72.62;100584.81;5051829;28;20483;-61
2023/04/23 02:31:22;;;;;;;25.90;22.77;;;;;;;10.95;72.84;100577.88;5051818;28;20135;-61
2023/04/23 02:33:47;;;;;;;25.48;22.73;;;;;;;10.98;72.71;100577.38;5061229;28;20039;-60
2023/04/23 02:36:13;;;;;;;25.77;22.98;;;;;;;10.94;72.90;100581.78;5056384;28;20472;-61
2023/04/23 02:38:43;;;;;;;26.73;22.75;;;;;;;10.90;72.91;100586.16;5058492;28;20480;-61
2023/04/23 02:41:08;;;;;;;25.58;22.35;;;;;;;10.86;72.98;100579.47;5058520;28;20097;-61
2023/04/23 02:43:34;;;;;;;26.52;23.15;;;;;;;10.90;73.04;100579.78;5058512;28;20037;-61
2023/04/23 02:45:59;;;;;;;26.17;23.38;;;;;;;10.89;73.13;100575.34;5064572;28;20029;-61
2023/04/23 02:48:26;;;;;;;25.58;22.80;;;;;;;10.87;72.99;100575.59;5053621;28;20054;-60
2023/04/23 02:50:51;;;;;;;25.27;22.60;;;;;;;10.86;73.33;100567.53;5052455;28;20120;-60
2023/04/23 02:53:17;;;;;;;25.95;23.20;;;;;;;10.86;73.14;100568.38;5052687;28;20043;-61
2023/04/23 02:55:42;;;;;;;24.85;22.27;;;;;;;10.86;73.30;100570.31;5053297;28;20139;-60
2023/04/23 02:58:07;;;;;;;23.67;21.15;;;;;;;10.90;73.23;100566.72;5058889;28;20024;-61
2023/04/23 03:00:33;;;;;;;25.35;21.95;;;;;;;10.89;73.33;100570.63;5059010;28;20025;-60
2023/04/23 03:02:58;;;;;;;24.05;21.52;;;;;;;10.85;73.49;100577.81;5067175;28;20028;-61
2023/04/23 03:05:23;;;;;;;24.13;21.33;;;;;;;10.87;73.51;100567.25;5050343;28;20068;-61
2023/04/23 03:07:48;;;;;;;25.02;21.08;;;;;;;10.85;73.57;100561.13;5056465;28;20101;-60
2023/04/23 03:10:14;;;;;;;23.13;20.63;;;;;;;10.89;73.51;100565.06;5051186;28;20082;-61
2023/04/23 03:12:39;;;;;;;26.40;20.75;;;;;;;10.93;73.56;100560.66;5061110;28;20060;-61
2023/04/23 03:15:05;;;;;;;25.17;21.90;;;;;;;10.89;73.66;100556.72;5050715;28;20515;-61
2023/04/23 03:17:31;;;;;;;25.15;22.50;;;;;;;10.87;73.80;100558.91;5052850;28;20460;-61
2023/04/23 03:19:56;;;;;;;24.00;21.42;;;;;;;10.94;73.61;100556.78;5057240;28;20144;-61
2023/04/23 03:22:21;;;;;;;23.75;21.25;;;;;;;10.92;73.92;100550.63;5053342;28;20035;-61
2023/04/23 03:24:46;;;;;;;24.35;20.83;;;;;;;10.93;73.59;100549.56;5057155;28;20365;-61
2023/04/23 03:27:12;;;;;;;23.77;21.25;;;;;;;10.91;73.17;100548.97;5054325;28;20119;-61
2023/04/23 03:29:37;;;;;;;23.33;20.85;;;;;;;10.90;74.12;100552.03;5057297;28;20055;-61
2023/04/23 03:32:02;;;;;;;22.60;20.17;;;;;;;10.96;73.42;100550.94;5058323;28;20179;-61
2023/04/23 03:34:28;;;;;;;22.98;20.13;;;;;;;10.89;73.90;100556.72;5060070;28;20400;-61
2023/04/23 03:36:53;;;;;;;23.50;20.40;;;;;;;10.89;74.06;100551.19;5052441;28;20361;-60
2023/04/23 03:39:18;;;;;;;24.92;20.58;;;;;;;10.95;73.89;100550.13;5070059;28;20033;-60
2023/04/23 03:41:44;;;;;;;24.35;21.75;;;;;;;10.91;74.08;100546.19;5067512;28;20081;-60
2023/04/23 03:44:10;;;;;;;24.38;21.88;;;;;;;10.90;74.36;100543.69;5069153;28;20032;-60
2023/04/23 03:46:35;;;;;;;23.58;20.50;;;;;;;10.96;73.83;100545.41;5055307;28;20021;-60
2023/04/23 03:49:00;;;;;;;23.40;20.48;;;;;;;10.91;73.89;100550.91;5061511;28;20066;-60
2023/04/23 03:51:27;;;;;;;24.17;20.77;;;;;;;10.92;74.10;100544.25;5055362;28;20043;-61
2023/04/23 03:53:52;;;;;;;22.17;19.88;;;;;;;10.88;74.72;100538.38;5055509;28;20033;-61
2023/04/23 03:56:17;;;;;;;22.83;19.70;;;;;;;10.94;74.21;100544.84;5070354;28;20032;-61
2023/04/23 03:58:42;;;;;;;22.80;20.15;;;;;;;10.96;74.20;100549.00;5060056;28;20032;-62
2023/04/23 04:01:08;;;;;;;23.60;20.65;;;;;;;10.92;74.36;100550.63;5060635;28;20029;-61
2023/04/23 04:03:33;;;;;;;25.30;20.75;;;;;;;10.93;74.55;100552.34;5049623;28;20061;-61
2023/04/23 04:05:58;;;;;;;24.02;21.00;;;;;;;10.88;74.84;100559.75;5050134;28;20055;-61
2023/04/23 04:08:25;;;;;;;23.25;20.42;;;;;;;10.92;74.59;100550.63;5054860;28;20029;-61
2023/04/23 04:10:50;;;;;;;24.48;21.88;;;;;;;10.89;74.14;100550.34;5062032;28;20036;-61
2023/04/23 04:13:16;;;;;;;23.42;20.92;;;;;;;10.87;74.79;100547.81;5053393;28;20041;-61
2023/04/23 04:15:41;;;;;;;22.88;19.92;;;;;;;10.86;74.51;100553.66;5078252;28;20045;-61
2023/04/23 04:18:06;;;;;;;23.98;20.85;;;;;;;10.84;74.84;100556.66;5084028;28;20054;-61
2023/04/23 04:20:32;;;;;;;24.35;21.23;;;;;;;10.84;74.77;100567.78;5077705;28;20023;-61
2023/04/23 04:22:57;;;;;;;23.52;21.13;;;;;;;10.84;74.90;100565.00;5077562;28;20054;-62
2023/04/23 04:25:23;;;;;;;22.10;19.75;;;;;;;10.83;74.73;100568.88;5084033;28;20035;-61
2023/04/23 04:27:48;;;;;;;23.77;21.23;;;;;;;10.79;74.87;100576.88;5073289;28;20038;-61
2023/04/23 04:30:14;;;;;;;23.67;20.45;;;;;;;10.85;74.66;100563.91;5075712;28;20029;-61
2023/04/23 04:32:41;;;;;;;22.50;20.10;;;;;;;10.80;74.95;100566.63;5074718;28;20036;-61
2023/04/23 04:35:08;;;;;;;22.63;20.08;;;;;;;10.79;75.25;100573.28;5084228;28;20032;-61
2023/04/23 04:37:34;;;;;;;22.92;20.15;;;;;;;10.79;75.02;100563.00;5078583;28;20032;-60
2023/04/23 04:40:00;;;;;;;23.35;19.30;;;;;;;10.84;75.06;100558.59;5081238;28;20035;-60
2023/04/23 04:42:25;;;;;;;22.65;20.05;;;;;;;10.81;74.95;100560.00;5082499;28;20532;-60
2023/04/23 04:44:51;;;;;;;21.85;19.48;;;;;;;10.86;74.79;100560.03;5092797;28;20040;-61
2023/04/23 04:47:17;;;;;;;21.42;19.13;;;;;;;10.89;74.75;100561.47;5082983;28;20020;-61
2023/04/23 04:49:43;;;;;;;20.83;18.67;;;;;;;10.88;74.92;100559.75;5077012;28;20036;-61
2023/04/23 04:52:09;;;;;;;23.52;19.98;;;;;;;10.90;74.61;100558.41;5091128;28;20036;-61
2023/04/23 04:54:35;;;;;;;23.15;19.17;;;;;;;10.84;74.60;100564.16;5088962;28;20032;-61
2023/04/23 04:57:01;;;;;;;21.48;18.55;;;;;;;10.85;74.70;100565.84;5081157;28;20372;-61
2023/04/23 04:59:26;;;;;;;21.67;19.38;;;;;;;10.81;74.78;100560.81;5090433;28;20028;-60
2023/04/23 05:01:52;;;;;;;23.65;19.77;;;;;;;10.83;74.70;100560.56;5077456;28;20074;-60
2023/04/23 05:04:17;;;;;;;23.77;19.80;;;;;;;10.81;74.64;100568.31;5075838;28;20035;-60
2023/04/23 05:06:43;;;;;;;24.13;19.02;;;;;;;10.80;74.87;100569.41;5076872;28;20031;-60
2023/04/23 05:09:09;;;;;;;21.40;19.13;;;;;;;10.77;75.02;100561.63;5072217;28;20070;-60
2023/04/23 05:11:34;;;;;;;20.40;18.25;;;;;;;10.79;75.14;100562.19;5082514;28;20463;-60
2023/04/23 05:14:00;;;;;;;21.77;19.48;;;;;;;10.78;75.32;100563.28;5075015;28;20023;-61
2023/04/23 05:16:25;;;;;;;21.95;19.40;;;;;;;10.78;75.49;100572.44;5053911;28;20044;-61
2023/04/23 05:18:50;;;;;;;21.50;18.90;;;;;;;10.86;75.25;100565.59;5051068;28;20108;-61
2023/04/23 05:21:16;;;;;;;23.70;18.98;;;;;;;10.84;75.51;100556.66;5049705;28;20025;-61
2023/04/23 05:23:41;;;;;;;23.83;19.83;;;;;;;10.85;75.52;100566.69;5047786;28;20039;-61
2023/04/23 05:26:06;;;;;;;22.92;20.45;;;;;;;10.88;75.53;100565.31;5053422;28;20423;-61
2023/04/23 05:28:32;;;;;;;22.50;20.10;;;;;;;10.91;75.40;100562.84;5050555;28;20460;-61
2023/04/23 05:30:57;;;;;;;23.17;18.77;;;;;;;10.96;75.34;100567.59;5050797;28;20024;-60
2023/04/23 05:33:23;;;;;;;23.98;19.58;;;;;;;10.97;75.48;100560.97;5048727;28;20025;-61
2023/04/23 05:35:48;;;;;;;23.80;19.65;;;;;;;10.94;75.67;100564.28;5050608;28;20028;-61
2023/04/23 05:38:13;;;;;;;22.17;19.77;;;;;;;10.93;75.70;100573.72;5059218;28;20072;-61
2023/04/23 05:40:39;;;;;;;21.75;19.40;;;;;;;10.92;75.81;100572.84;5052185;28;20039;-61
2023/04/23 05:43:05;;;;;;;23.05;20.27;;;;;;;10.93;75.67;100562.59;5059798;28;20025;-61
2023/04/23 05:45:30;;;;;;;22.35;20.05;;;;;;;10.93;75.85;100559.81;5061401;28;20121;-61
2023/04/23 05:47:55;;;;;;;22.05;19.65;;;;;;;10.97;76.01;100566.53;5052271;28;20025;-61
2023/04/23 05:50:21;;;;;;;21.55;19.15;;;;;;;10.93;76.15;100560.66;5052083;28;20063;-60
2023/04/23 05:52:46;;;;;;;21.45;19.13;;;;;;;10.97;76.15;100560.97;5051966;28;20751;-60
2023/04/23 05:55:14;;;;;;;21.98;18.60;;;;;;;10.96;76.29;100551.78;5051738;28;20060;-60
2023/04/23 05:57:39;;;;;;;23.13;19.17;;;;;;;10.93;76.37;100563.44;5054077;28;20036;-60
2023/04/23 06:00:08;;;;;;;20.02;17.85;;;;;;;10.98;76.43;100560.69;5055663;28;20035;-60
2023/04/23 06:02:34;;;;;;;21.05;18.33;;;;;;;10.99;76.68;100558.75;5070354;28;20033;-60
2023/04/23 06:04:59;;;;;;;20.58;17.75;;;;;;;11.05;76.30;100555.78;5070164;28;20028;-60
2023/04/23 06:07:24;;;;;;;20.05;17.85;;;;;;;11.12;76.26;100565.81;5055970;28;20391;-60
2023/04/23 06:09:50;;;;;;;19.73;17.60;;;;;;;11.16;76.02;100558.63;5066962;28;20467;-60
2023/04/23 06:12:15;;;;;;;19.38;17.35;;;;;;;11.21;76.19;100559.53;5068333;28;20036;-60
2023/04/23 06:14:40;;;;;;;20.20;17.50;;;;;;;11.33;75.86;100558.50;5051000;28;20443;-62
2023/04/23 06:17:06;;;;;;;20.13;16.83;;;;;;;11.39;75.42;100549.09;5054440;28;20044;-61
2023/04/23 06:19:31;;;;;;;18.88;16.50;;;;;;;11.50;75.37;100543.34;5049794;28;20035;-61
2023/04/23 06:21:56;;;;;;;18.92;16.77;;;;;;;11.64;74.96;100545.69;5050100;28;20659;-61
2023/04/23 06:24:21;;;;;;;22.23;17.20;;;;;;;11.68;75.10;100541.25;5051223;28;20021;-61
2023/04/23 06:26:47;;;;;;;20.17;16.80;;;;;;;11.76;74.42;100532.41;5056675;28;20029;-61
2023/04/23 06:29:12;;;;;;;18.02;16.13;;;;;;;11.75;73.97;100534.38;5061338;28;20369;-61
2023/04/23 06:31:38;;;;;;;20.58;15.55;;;;;;;11.83;74.54;100534.94;5047548;28;20175;-61
2023/04/23 06:34:03;;;;;;;23.60;17.33;;;;;;;11.90;74.20;100522.50;5055492;28;20089;-61
2023/04/23 06:36:29;;;;;;;21.55;16.50;;;;;;;11.95;74.11;100522.53;5057747;28;20036;-62
2023/04/23 06:38:54;;;;;;;19.20;14.80;;;;;;;12.07;73.69;100527.06;5060586;28;20336;-62
2023/04/23 06:41:20;;;;;;;21.83;15.13;;;;;;;12.13;73.68;100526.78;5069412;28;20035;-60
2023/04/23 06:43:47;;;;;;;20.10;15.57;;;;;;;12.17;73.45;100529.88;5065644;28;20044;-61
2023/04/23 06:46:12;;;;;;;18.52;14.93;;;;;;;12.18;73.20;100532.41;5070666;28;20486;-62
2023/04/23 06:48:38;;;;;;;18.50;15.60;;;;;;;12.26;73.60;100531.00;5069063;28;20032;-61
2023/04/23 06:51:04;;;;;;;15.13;13.52;;;;;;;12.41;73.94;100530.22;5050747;28;20044;-61
2023/04/23 06:53:30;;;;;;;18.90;13.40;;;;;;;12.42;72.61;100518.00;5055220;28;20036;-62
2023/04/23 06:55:55;;;;;;;16.30;13.18;;;;;;;12.47;72.96;100529.16;5052816;28;20024;-60
2023/04/23 06:58:22;;;;;;;15.10;12.52;;;;;;;12.51;72.81;100519.13;5053744;28;20580;-57
2023/04/23 07:00:47;;;;;;;15.88;13.30;;;;;;;12.62;72.81;100525.59;5052582;28;20129;-58
2023/04/23 07:03:12;;;;;;;14.63;11.93;;;;;;;12.77;73.47;100517.22;5070884;28;20020;-58
2023/04/23 07:05:38;;;;;;;14.80;11.88;;;;;;;12.84;71.92;100515.03;5053194;28;20037;-63
2023/04/23 07:08:03;;;;;;;12.57;11.00;;;;;;;12.92;71.90;100514.47;5051575;28;20041;-61
2023/04/23 07:10:28;;;;;;;14.93;10.40;;;;;;;12.94;71.50;100509.47;5052562;28;20381;-61
2023/04/23 07:12:54;;;;;;;13.95;9.80;;;;;;;12.87;70.41;100506.13;5049973;28;20024;-61
2023/04/23 07:15:19;;;;;;;13.45;9.63;;;;;;;13.03;71.83;100510.59;5073032;28;20499;-61
2023/04/23 07:17:45;;;;;;;18.63;9.90;;;;;;;13.14;71.02;100508.66;5079882;28;20440;-62
2023/04/23 07:20:10;;;;;;;16.42;9.23;;;;;;;13.18;70.41;100508.94;5070833;28;20033;-62
2023/04/23 07:22:36;;;;;;;9.90;8.55;;;;;;;13.28;70.37;100514.50;5076006;28;20051;-62
2023/04/23 07:25:03;;;;;;;9.05;7.82;;;;;;;13.37;70.77;100507.28;5080034;28;20360;-63
2023/04/23 07:27:31;;;;;;;12.57;8.43;;;;;;;13.49;70.76;100507.81;5068574;28;20082;-63
2023/04/23 07:29:57;;;;;;;17.13;9.15;;;;;;;13.56;69.64;100506.66;5076611;28;20475;-63
2023/04/23 07:32:26;;;;;;;12.10;7.65;;;;;;;13.65;69.02;100507.78;5074586;28;20024;-62
2023/04/23 07:34:51;;;;;;;13.15;7.72;;;;;;;13.62;69.34;100514.75;5084775;28;20115;-62
2023/04/23 07:37:17;;;;;;;16.17;7.82;;;;;;;13.65;68.60;100508.63;5073237;28;20056;-61
2023/04/23 07:39:42;;;;;;;10.57;6.90;;;;;;;13.60;69.17;100503.06;5080176;28;20135;-62
2023/04/23 07:42:08;;;;;;;14.57;7.00;;;;;;;13.65;67.86;100497.47;5070269;28;20036;-62
2023/04/23 07:44:33;;;;;;;14.80;6.70;;;;;;;13.73;68.79;100494.09;5089094;28;20039;-63
2023/04/23 07:46:59;;;;;;;11.82;6.57;;;;;;;13.87;68.99;100497.16;5071809;28;20536;-63
2023/04/23 07:49:24;;;;;;;13.25;6.10;;;;;;;13.94;67.31;100500.44;5088780;28;20036;-62
2023/04/23 07:51:49;;;;;;;10.38;6.20;;;;;;;14.00;67.07;100496.53;5094530;28;20016;-62
2023/04/23 07:54:15;;;;;;;13.98;6.13;;;;;;;14.00;66.66;100496.53;5094136;28;20395;-63
2023/04/23 07:56:40;;;;;;;11.38;6.65;;;;;;;14.00;66.59;100493.75;5076069;28;20055;-62
2023/04/23 07:59:05;;;;;;;10.07;5.22;;;;;;;14.18;67.41;100499.78;5074491;28;20074;-63
2023/04/23 08:01:34;;;;;;;10.43;5.70;;;;;;;14.30;67.10;100494.72;5078106;28;20017;-63
2023/04/23 08:03:59;;;;;;;10.25;5.05;;;;;;;14.44;66.86;100489.34;5081519;28;20430;-65
2023/04/23 08:06:26;;;;;;;9.52;5.07;;;;;;;14.47;65.39;100492.41;5074588;28;20032;-62
2023/04/23 08:08:51;;;;;;;11.27;4.85;;;;;;;14.57;65.32;100493.47;5078285;28;20028;-62
2023/04/23 08:11:17;;;;;;;12.05;5.60;;;;;;;14.61;64.76;100494.56;5088720;28;20035;-62
2023/04/23 08:13:42;;;;;;;11.85;4.80;;;;;;;14.63;65.13;100482.00;5073649;28;20024;-62
2023/04/23 08:16:08;;;;;;;8.43;4.45;;;;;;;14.73;65.44;100481.09;5072261;28;20132;-63
2023/04/23 08:18:34;;;;;;;11.88;4.78;;;;;;;14.72;64.67;100471.88;5074843;28;20529;-62
2023/04/23 08:20:59;;;;;;;10.82;4.60;;;;;;;14.80;64.52;100473.22;5073074;28;20059;-61
2023/04/23 08:23:24;;;;;;;13.90;5.07;;;;;;;14.92;65.07;100475.66;5075245;28;20066;-62
2023/04/23 08:25:53;;;;;;;9.60;4.43;;;;;;;14.96;64.42;100469.19;5084381;28;20067;-63
2023/04/23 08:28:19;;;;;;;10.98;4.78;;;;;;;15.07;64.01;100460.72;5075785;28;20125;-64
2023/04/23 08:30:45;;;;;;;10.50;4.45;;;;;;;15.17;63.58;100461.47;5082469;28;20035;-62
2023/04/23 08:33:10;;;;;;;9.75;4.32;;;;;;;15.16;62.77;100456.16;5086600;28;20813;-63
2023/04/23 08:35:36;;;;;;;8.00;4.05;;;;;;;15.20;63.35;100463.66;5089849;28;20035;-63
2023/04/23 08:38:01;;;;;;;11.18;4.35;;;;;;;15.35;63.68;100468.28;5082669;28;20036;-62
2023/04/23 08:40:29;;;;;;;11.55;4.45;;;;;;;15.37;62.56;100459.63;5085045;28;20077;-63
2023/04/23 08:43:02;;;;;;;9.20;4.50;;;;;;;15.47;63.21;100468.72;5082946;28;20491;-61
2023/04/23 08:45:29;;;;;;;11.50;4.30;;;;;;;15.54;62.08;100467.53;5082665;28;20400;-64
2023/04/23 08:47:58;;;;;;;7.32;3.47;;;;;;;15.59;62.21;100462.72;5075139;28;20035;-63
2023/04/23 08:50:24;;;;;;;11.93;3.42;;;;;;;15.63;60.94;100460.16;5075961;28;20035;-61
2023/04/23 08:52:52;;;;;;;8.93;3.92;;;;;;;15.62;61.00;100464.09;5076477;28;20037;-61
2023/04/23 08:55:19;;;;;;;7.97;3.15;;;;;;;15.66;60.81;100465.19;5082459;28;20030;-61
2023/04/23 08:57:45;;;;;;;11.65;3.17;;;;;;;15.65;60.46;100461.56;5091815;28;20036;-62
2023/04/23 09:00:12;;;;;;;8.23;2.60;;;;;;;15.65;59.67;100471.94;5083409;28;20021;-61
2023/04/23 09:02:42;;;;;;;10.57;3.47;;;;;;;15.62;59.94;100470.53;5076001;28;20043;-62
2023/04/23 09:05:08;;;;;;;8.57;2.97;;;;;;;15.65;59.94;100469.97;5092860;28;20039;-62
2023/04/23 09:07:34;;;;;;;9.65;2.60;;;;;;;15.70;59.53;100464.31;5091777;28;20024;-64
2023/04/23 09:10:00;;;;;;;8.35;2.85;;;;;;;15.70;58.94;100464.31;5083709;28;20070;-63
2023/04/23 09:12:26;;;;;;;9.15;2.78;;;;;;;15.76;59.55;100456.72;5083484;28;20032;-62
2023/04/23 09:14:51;;;;;;;6.28;2.60;;;;;;;15.73;58.17;100464.84;5070777;28;20048;-62
2023/04/23 09:17:18;;;;;;;10.00;2.63;;;;;;;15.73;58.59;100459.25;5076327;28;20101;-62
2023/04/23 09:19:47;;;;;;;7.70;2.20;;;;;;;15.78;57.77;100467.59;5082800;28;20031;-63
2023/04/23 09:22:12;;;;;;;8.52;2.25;;;;;;;15.70;56.17;100455.91;5081178;28;20058;-61
2023/04/23 09:24:42;;;;;;;8.13;2.30;;;;;;;15.79;57.80;100450.50;5086594;28;20475;-61
2023/04/23 09:27:08;;;;;;;9.60;2.13;;;;;;;15.86;56.93;100453.78;5090819;28;20427;-60
2023/04/23 09:29:33;;;;;;;11.90;2.25;;;;;;;15.91;56.80;100441.66;5083070;28;20031;-63
2023/04/23 09:32:07;;;;;;;5.30;2.25;;;;;;;15.98;57.03;100439.34;5092421;28;20024;-62
2023/04/23 09:34:36;;;;;;;10.32;2.40;;;;;;;16.04;55.69;100440.13;5084979;28;20040;-62
2023/04/23 09:37:02;;;;;;;8.68;2.38;;;;;;;16.08;55.43;100441.19;5083978;28;20567;-62
2023/04/23 09:39:28;;;;;;;8.35;2.03;;;;;;;16.15;54.45;100434.09;5078412;28;20040;-63
2023/04/23 09:41:53;;;;;;;7.00;1.80;;;;;;;16.24;54.69;100428.66;5082540;28;20023;-63
2023/04/23 09:44:21;;;;;;;9.98;2.67;;;;;;;16.32;54.65;100433.59;5082083;28;20050;-63
2023/04/23 09:46:47;;;;;;;7.95;2.20;;;;;;;16.35;54.37;100427.38;5076262;28;20533;-61
2023/04/23 09:49:14;;;;;;;7.88;2.53;;;;;;;16.44;54.99;100433.13;5070425;28;20028;-64
2023/04/23 09:51:41;;;;;;;10.85;2.30;;;;;;;16.38;54.19;100432.34;5080209;28;20395;-62
2023/04/23 09:54:18;;;;;;;8.10;2.53;;;;;;;16.33;55.31;100446.44;5078882;28;20047;-63
2023/04/23 09:56:49;;;;;;;8.32;2.38;;;;;;;16.23;54.05;100435.41;5072345;28;20028;-63
2023/04/23 09:59:28;;;;;;;7.03;2.40;;;;;;;16.16;54.05;100429.34;5075915;28;20091;-65
2023/04/23 10:01:54;;;;;;;5.93;1.90;;;;;;;16.11;54.07;100424.63;5080164;28;20035;-65
2023/04/23 10:04:21;;;;;;;6.13;2.05;;;;;;;16.03;54.22;100430.03;5074093;28;20032;-62
2023/04/23 10:07:13;;;;;;;6.13;2.00;;;;;;;16.00;55.29;100430.66;5078735;28;20080;-63
2023/04/23 10:09:40;;;;;;;7.90;2.20;;;;;;;15.92;53.36;100421.81;5070579;28;20046;-62
2023/04/23 10:12:07;;;;;;;9.75;2.42;;;;;;;15.94;54.99;100430.72;5079017;28;20321;-62
2023/04/23 10:14:33;;;;;;;4.18;1.85;;;;;;;15.98;54.87;100427.31;5073837;28;20044;-65
2023/04/23 10:17:00;;;;;;;8.82;2.20;;;;;;;16.03;55.64;100421.66;5079110;28;20035;-64
2023/04/23 10:19:27;;;;;;;9.75;2.40;;;;;;;16.08;55.40;100422.44;5077467;28;20056;-63
2023/04/23 10:21:56;;;;;;;5.22;1.88;;;;;;;16.10;55.08;100414.56;5078144;28;20379;-64
2023/04/23 10:24:29;;;;;;;12.02;2.28;;;;;;;16.16;55.33;100409.72;5069606;28;20069;-63
2023/04/23 10:27:04;;;;;;;6.72;2.17;;;;;;;16.19;54.95;100414.69;5076674;28;20029;-63
2023/04/23 10:29:32;;;;;;;6.72;2.20;;;;;;;16.16;54.98;100409.72;5070699;28;20042;-63
2023/04/23 10:32:00;;;;;;;7.72;2.55;;;;;;;16.19;55.10;100414.69;5078805;28;20072;-62
2023/04/23 10:34:26;;;;;;;8.85;2.33;;;;;;;16.15;54.84;100411.69;5075084;28;20036;-62
2023/04/23 10:36:52;;;;;;;7.15;1.88;;;;;;;16.10;54.52;100399.72;5077346;28;20065;-63
2023/04/23 10:39:20;;;;;;;20.90;2.67;;;;;;;16.02;54.87;100404.03;5076417;28;20095;-63
2023/04/23 10:41:47;;;;;;;9.52;2.20;;;;;;;16.05;55.63;100397.84;5077880;28;20020;-62
2023/04/23 10:44:15;;;;;;;5.80;2.03;;;;;;;16.03;55.39;100405.69;5079794;28;20032;-63
2023/04/23 10:46:51;;;;;;;8.25;2.30;;;;;;;16.02;55.70;100403.19;5079592;28;20024;-63
2023/04/23 10:49:16;;;;;;;5.03;2.15;;;;;;;16.01;55.02;100404.34;5074610;28;20028;-63
2023/04/23 10:51:45;;;;;;;7.38;2.25;;;;;;;16.02;55.09;100400.41;5071498;28;20036;-65
2023/04/23 10:54:14;;;;;;;7.25;2.85;;;;;;;16.03;55.60;100385.25;5072968;28;20052;-64
2023/04/23 10:56:41;;;;;;;4.43;2.15;;;;;;;16.06;55.70;100388.28;5069186;28;20036;-65
2023/04/23 10:59:21;;;;;;;4.68;2.47;;;;;;;16.10;55.84;100354.94;5068696;28;20039;-66
2023/04/23 11:01:49;;;;;;;8.35;2.13;;;;;;;16.11;55.29;100373.38;5076947;28;20429;-63
2023/04/23 11:04:27;;;;;;;8.98;2.55;;;;;;;16.12;55.64;100369.47;5071182;28;20106;-63
2023/04/23 11:06:55;;;;;;;5.07;2.75;;;;;;;16.11;55.92;100360.25;5069451;28;20032;-63
2023/04/23 11:09:41;;;;;;;7.57;2.40;;;;;;;16.12;56.05;100370.31;5068451;28;20156;-64